Página principal
METAR-TAF:

METAR-TAF

Aeroportos :

Deering, Alasca, Estados Unidos

latitude: 66-05N, longitude: 162-45W, altura: 5 m

Observação actual do tempo

O boletim foi feito há 26 minutos, às 04:53 UTC
Vento 7 kt de nordeste
Temperatura 11°C
Humidade 71%
Pressão 1013 hPa
Visibilidade: 16.1 km
Céu limpo

METAR: PADE 250453Z AUTO 05007KT 10SM CLR 11/06 A2992 RMK AO2 SLP133 T01110061 TSNO

Hora: 21:19 (05:19 UTC)


TAF: em falta

Observações e previsões do tempo de mais de 4000 aeroportos (mensagens METAR e TAF).

As estações disponíveis são os pontos amarelos e vermelhos sobre o mapa.

Mova o rato sobre o mapa para ver o nome da estação.

Depois clique no ponto para visualizar as observações e previsões meteorológicas.

Para alterar o mapa : clique nos botões verdes com uma cruz preta para aumentar o zoom; no botão verde com uma pitada de zoom; ou nas setas verdes para mapas adjacentes.


METAR-TAF: